Time;durP1;ratioP1;P1;durP2;ratioP2;P2;SDS_P1;SDS_P2;PMS_P1;PMS_P2;Temp;Humidity;BMP_temperature;BMP_pressure;BME280_temperature;BME280_humidity;BME280_pressure;Samples;Min_cycle;Max_cycle;Signal;HPM_P1;HPM_P2
2023/09/03 00:00:32;;;;;;;10.88;9.20;;;14.90;99.90;;;;;;5054138;28;20386;-69
2023/09/03 00:02:58;;;;;;;9.75;8.32;;;14.90;99.90;;;;;;5052993;28;20073;-69
2023/09/03 00:05:23;;;;;;;13.23;9.50;;;14.90;99.90;;;;;;5054459;28;20090;-69
2023/09/03 00:07:50;;;;;;;11.05;9.07;;;14.80;99.90;;;;;;5054095;28;20049;-69
2023/09/03 00:10:16;;;;;;;12.05;8.73;;;14.80;99.90;;;;;;5054021;28;20067;-69
2023/09/03 00:12:42;;;;;;;12.55;9.20;;;14.80;99.90;;;;;;5054115;28;20578;-69
2023/09/03 00:15:08;;;;;;;10.98;9.65;;;14.80;99.90;;;;;;5054245;28;20040;-69
2023/09/03 00:17:34;;;;;;;11.45;8.98;;;14.90;99.90;;;;;;5053937;28;20470;-69
2023/09/03 00:19:59;;;;;;;14.85;9.43;;;14.80;99.90;;;;;;5052652;28;20120;-69
2023/09/03 00:22:25;;;;;;;12.02;9.30;;;14.80;99.90;;;;;;5053986;28;20484;-69
2023/09/03 00:24:50;;;;;;;12.65;9.80;;;14.80;99.90;;;;;;5052815;28;20496;-69
2023/09/03 00:27:16;;;;;;;12.23;9.27;;;14.80;99.90;;;;;;5053705;28;20041;-68
2023/09/03 00:29:41;;;;;;;11.93;8.60;;;14.70;99.90;;;;;;5053605;28;20044;-68
2023/09/03 00:32:07;;;;;;;12.20;9.73;;;14.70;99.90;;;;;;5053691;28;20037;-68
2023/09/03 00:34:32;;;;;;;10.77;8.40;;;14.70;99.90;;;;;;5053829;28;20119;-68
2023/09/03 00:36:59;;;;;;;11.38;8.13;;;14.70;99.90;;;;;;5052390;28;20043;-69
2023/09/03 00:39:24;;;;;;;11.38;9.15;;;14.70;99.90;;;;;;5053329;28;20037;-69
2023/09/03 00:41:50;;;;;;;13.20;8.95;;;14.70;99.90;;;;;;5053469;28;20040;-68
2023/09/03 00:44:16;;;;;;;12.20;8.75;;;14.70;99.90;;;;;;5052468;28;20466;-68
2023/09/03 00:46:42;;;;;;;10.82;8.50;;;14.70;99.90;;;;;;5053626;28;20124;-68
2023/09/03 00:49:10;;;;;;;13.15;9.32;;;14.60;99.90;;;;;;5052269;28;20151;-68
2023/09/03 00:51:36;;;;;;;14.13;10.30;;;14.60;99.90;;;;;;5035540;28;20041;-69
2023/09/03 00:54:03;;;;;;;13.23;10.00;;;14.60;99.90;;;;;;5052380;28;20037;-69
2023/09/03 00:56:30;;;;;;;16.35;10.27;;;14.60;99.90;;;;;;5052261;28;20404;-69
2023/09/03 00:58:56;;;;;;;13.23;9.88;;;14.60;99.90;;;;;;5051827;28;20041;-69
2023/09/03 01:01:22;;;;;;;11.60;9.73;;;14.60;99.90;;;;;;5052669;28;20115;-69
2023/09/03 01:03:48;;;;;;;12.93;10.15;;;14.50;99.90;;;;;;5053018;28;20040;-69
2023/09/03 01:06:15;;;;;;;15.00;10.68;;;14.50;99.90;;;;;;5051810;28;20625;-69
2023/09/03 01:08:41;;;;;;;14.63;10.95;;;14.50;99.90;;;;;;5052892;28;20080;-69
2023/09/03 01:11:27;;;;;;;14.25;10.68;;;14.50;99.90;;;;;;5053012;28;20055;-68
2023/09/03 01:14:25;;;;;;;16.08;9.77;;;14.50;99.90;;;;;;5052048;28;20573;-69
2023/09/03 01:17:01;;;;;;;15.52;11.07;;;14.50;99.90;;;;;;5051327;28;20057;-69
2023/09/03 01:20:05;;;;;;;16.27;10.13;;;14.50;99.90;;;;;;5052621;28;20434;-68
2023/09/03 01:22:49;;;;;;;15.38;10.70;;;14.40;99.90;;;;;;5035137;28;20124;-68
2023/09/03 01:25:40;;;;;;;14.50;10.77;;;14.40;99.90;;;;;;5052791;28;20037;-68
2023/09/03 01:28:29;;;;;;;16.10;10.88;;;14.30;99.90;;;;;;5051455;28;20040;-68
2023/09/03 01:31:04;;;;;;;14.65;11.13;;;14.40;99.90;;;;;;5052840;28;20076;-68
2023/09/03 01:33:31;;;;;;;13.82;10.63;;;14.30;99.90;;;;;;5051287;28;20402;-69
2023/09/03 01:35:59;;;;;;;14.57;11.00;;;14.40;99.90;;;;;;5052416;28;20068;-69
2023/09/03 01:38:25;;;;;;;14.40;9.55;;;14.40;99.90;;;;;;5051438;28;20112;-68
2023/09/03 01:40:51;;;;;;;15.25;9.77;;;14.40;99.90;;;;;;5052591;28;20048;-68
2023/09/03 01:43:17;;;;;;;14.90;9.32;;;14.40;99.90;;;;;;5051219;28;20068;-69
2023/09/03 01:45:59;;;;;;;14.57;10.27;;;14.40;99.90;;;;;;5052556;28;20060;-68
2023/09/03 01:48:33;;;;;;;10.82;8.85;;;14.40;99.90;;;;;;5050954;28;20106;-69
2023/09/03 01:51:12;;;;;;;12.40;8.38;;;14.30;99.90;;;;;;5051144;28;20531;-69
2023/09/03 01:53:58;;;;;;;10.77;8.27;;;14.30;99.90;;;;;;5051311;28;20045;-69
2023/09/03 01:56:29;;;;;;;11.90;8.10;;;14.30;99.90;;;;;;5051820;28;20052;-69
2023/09/03 01:58:58;;;;;;;12.00;9.00;;;14.30;99.90;;;;;;5034326;28;20044;-68
2023/09/03 02:01:26;;;;;;;12.05;8.77;;;14.30;99.90;;;;;;5050741;28;20044;-69
2023/09/03 02:03:53;;;;;;;12.98;9.07;;;14.30;99.90;;;;;;5051812;28;20037;-69
2023/09/03 02:06:18;;;;;;;9.75;8.13;;;14.30;99.90;;;;;;5034466;28;20067;-68
2023/09/03 02:08:44;;;;;;;10.02;8.15;;;14.30;99.90;;;;;;5051641;28;20420;-69
2023/09/03 02:11:09;;;;;;;10.10;8.10;;;14.20;99.90;;;;;;5051927;28;20117;-68
2023/09/03 02:13:35;;;;;;;11.40;8.02;;;14.20;99.90;;;;;;5050588;28;20045;-69
2023/09/03 02:16:01;;;;;;;11.65;8.20;;;14.20;99.90;;;;;;5051939;28;20076;-68
2023/09/03 02:18:26;;;;;;;10.63;8.45;;;14.20;99.90;;;;;;5050504;28;20047;-69
2023/09/03 02:20:52;;;;;;;12.30;8.25;;;14.20;99.90;;;;;;5051521;28;20036;-68
2023/09/03 02:23:17;;;;;;;11.18;9.07;;;14.20;99.90;;;;;;5050375;28;20047;-68
2023/09/03 02:25:43;;;;;;;11.63;7.97;;;14.20;99.90;;;;;;5051806;28;20116;-69
2023/09/03 02:28:08;;;;;;;13.98;9.18;;;14.20;99.90;;;;;;5033823;28;20480;-68
2023/09/03 02:30:34;;;;;;;13.63;9.02;;;14.20;99.90;;;;;;5051472;28;20084;-69
2023/09/03 02:33:00;;;;;;;10.95;8.52;;;14.20;99.90;;;;;;5051558;28;20037;-68
2023/09/03 02:35:25;;;;;;;13.07;9.75;;;14.20;99.90;;;;;;5050448;28;20553;-69
2023/09/03 02:37:51;;;;;;;13.82;9.52;;;14.20;99.90;;;;;;5051814;28;20416;-68
2023/09/03 02:40:16;;;;;;;11.60;8.80;;;14.20;99.90;;;;;;5051577;28;20037;-69
2023/09/03 02:42:42;;;;;;;14.95;10.43;;;14.20;99.90;;;;;;5050391;28;20113;-69
2023/09/03 02:45:08;;;;;;;14.13;9.07;;;14.20;99.90;;;;;;5051777;28;20033;-69
2023/09/03 02:47:33;;;;;;;14.68;9.60;;;14.20;99.90;;;;;;5050457;28;20496;-69
2023/09/03 02:49:59;;;;;;;12.38;9.45;;;14.20;99.90;;;;;;5050171;28;20467;-69
2023/09/03 02:52:24;;;;;;;11.32;8.70;;;14.20;99.90;;;;;;5051600;28;20061;-68
2023/09/03 02:54:50;;;;;;;10.90;8.80;;;14.20;99.90;;;;;;5051473;28;20075;-68
2023/09/03 02:57:15;;;;;;;11.63;9.00;;;14.10;99.90;;;;;;5051480;28;20095;-68
2023/09/03 02:59:44;;;;;;;11.32;8.70;;;14.10;99.90;;;;;;5050087;28;20404;-68
2023/09/03 03:02:10;;;;;;;10.60;8.13;;;14.10;99.90;;;;;;5051419;28;20403;-69
2023/09/03 03:04:35;;;;;;;12.20;9.07;;;14.00;99.90;;;;;;5051511;28;20041;-68
2023/09/03 03:07:01;;;;;;;11.32;8.70;;;14.00;99.90;;;;;;5050218;28;20404;-69
2023/09/03 03:09:26;;;;;;;11.23;8.13;;;13.90;99.90;;;;;;5051190;28;20396;-68
2023/09/03 03:11:52;;;;;;;13.90;8.50;;;14.00;99.90;;;;;;5049976;28;20116;-68
2023/09/03 03:14:18;;;;;;;12.95;8.63;;;13.90;99.90;;;;;;5050157;28;20105;-69
2023/09/03 03:16:43;;;;;;;9.10;7.72;;;13.90;99.90;;;;;;5050168;28;20041;-69
2023/09/03 03:19:09;;;;;;;11.15;8.07;;;13.90;99.90;;;;;;5051042;28;20041;-69
2023/09/03 03:21:36;;;;;;;10.25;7.80;;;13.90;99.90;;;;;;5051267;28;20416;-69
2023/09/03 03:24:03;;;;;;;10.65;8.40;;;13.80;99.90;;;;;;5049969;28;20526;-69
2023/09/03 03:26:31;;;;;;;11.57;7.93;;;13.90;99.90;;;;;;5054941;28;20045;-68
2023/09/03 03:28:56;;;;;;;12.52;8.93;;;13.90;99.90;;;;;;5053447;28;20508;-70
2023/09/03 03:31:22;;;;;;;13.10;8.82;;;13.80;99.90;;;;;;5055158;28;20077;-69
2023/09/03 03:33:48;;;;;;;12.50;8.80;;;13.80;99.90;;;;;;5054927;28;20183;-69
2023/09/03 03:36:15;;;;;;;10.88;8.43;;;13.80;99.90;;;;;;5054822;28;20136;-69
2023/09/03 03:38:41;;;;;;;11.60;8.60;;;13.70;99.90;;;;;;5053346;28;20120;-69
2023/09/03 03:41:10;;;;;;;12.57;9.00;;;13.80;99.90;;;;;;5053722;28;20657;-69
2023/09/03 03:43:41;;;;;;;11.70;8.93;;;13.70;99.90;;;;;;5054639;28;20080;-69
2023/09/03 03:46:08;;;;;;;11.75;8.25;;;13.70;99.90;;;;;;5054855;28;20068;-69
2023/09/03 03:48:34;;;;;;;10.95;8.77;;;13.70;99.90;;;;;;5054340;28;20087;-69
2023/09/03 03:51:00;;;;;;;11.85;8.73;;;13.70;99.90;;;;;;5048777;28;20041;-68
2023/09/03 03:53:26;;;;;;;10.38;7.72;;;13.70;99.90;;;;;;5044342;28;20124;-68
2023/09/03 03:56:00;;;;;;;10.80;7.30;;;13.70;99.90;;;;;;5046151;28;20461;-67
2023/09/03 03:58:27;;;;;;;10.13;7.22;;;13.70;99.90;;;;;;5054472;28;20041;-68
2023/09/03 04:00:53;;;;;;;8.18;6.60;;;13.70;99.90;;;;;;5054333;28;20051;-68
2023/09/03 04:03:19;;;;;;;7.60;6.55;;;13.70;99.90;;;;;;5054116;28;20116;-68
2023/09/03 04:05:44;;;;;;;8.82;6.55;;;13.60;99.90;;;;;;5044638;28;20041;-68
2023/09/03 04:08:10;;;;;;;7.65;5.63;;;13.60;99.90;;;;;;5054018;28;20051;-68
2023/09/03 04:10:35;;;;;;;10.07;6.68;;;13.60;99.90;;;;;;5054106;28;20064;-68
2023/09/03 04:13:01;;;;;;;7.20;5.97;;;13.60;99.90;;;;;;5054364;28;20037;-68
2023/09/03 04:15:26;;;;;;;8.07;6.82;;;13.60;99.90;;;;;;5054118;28;20048;-68
2023/09/03 04:17:52;;;;;;;11.10;7.50;;;13.60;99.90;;;;;;5052956;28;20028;-68
2023/09/03 04:20:18;;;;;;;9.57;7.35;;;13.60;99.90;;;;;;5053929;28;20108;-68
2023/09/03 04:22:43;;;;;;;14.38;7.97;;;13.60;99.90;;;;;;5052677;28;20045;-68
2023/09/03 04:25:09;;;;;;;13.95;8.85;;;13.50;99.90;;;;;;5054141;28;20405;-68
2023/09/03 04:27:34;;;;;;;11.60;7.55;;;13.60;99.90;;;;;;5052843;28;20194;-68
2023/09/03 04:30:00;;;;;;;9.05;7.68;;;13.60;99.90;;;;;;5053832;28;20565;-68
2023/09/03 04:32:25;;;;;;;10.23;8.20;;;13.60;99.90;;;;;;5053780;28;20463;-69
2023/09/03 04:34:51;;;;;;;13.60;8.45;;;13.60;99.90;;;;;;5045397;28;20124;-69
2023/09/03 04:37:17;;;;;;;11.25;8.55;;;13.60;99.90;;;;;;5052624;28;20103;-68
2023/09/03 04:39:42;;;;;;;11.40;8.77;;;13.60;99.90;;;;;;5053674;28;20378;-68
2023/09/03 04:42:08;;;;;;;11.45;9.20;;;13.50;99.90;;;;;;5053691;28;20083;-68
2023/09/03 04:44:37;;;;;;;9.73;8.38;;;13.50;99.90;;;;;;5053509;28;20564;-69
2023/09/03 04:47:05;;;;;;;10.77;8.45;;;13.50;99.90;;;;;;5053180;28;20092;-68
2023/09/03 04:49:32;;;;;;;12.88;9.07;;;13.60;99.90;;;;;;5051583;28;20586;-68
2023/09/03 04:51:58;;;;;;;13.68;9.27;;;13.60;99.90;;;;;;5053174;28;20091;-68
2023/09/03 04:54:23;;;;;;;14.18;9.05;;;13.50;99.90;;;;;;5053367;28;20455;-68
2023/09/03 04:56:49;;;;;;;11.25;8.73;;;13.60;99.90;;;;;;5052345;28;20451;-68
2023/09/03 04:59:15;;;;;;;10.57;8.52;;;13.60;99.90;;;;;;5045752;28;20417;-69
2023/09/03 05:01:42;;;;;;;12.75;9.45;;;13.60;99.90;;;;;;5053093;28;20052;-69
2023/09/03 05:04:07;;;;;;;10.13;8.55;;;13.60;99.90;;;;;;5096375;22;20101;-68
2023/09/03 05:06:33;;;;;;;10.77;8.27;;;13.60;99.90;;;;;;5093312;28;20126;-68
2023/09/03 05:08:58;;;;;;;9.43;7.82;;;13.60;99.90;;;;;;5093216;28;20048;-68
2023/09/03 05:11:24;;;;;;;12.23;8.10;;;13.60;99.90;;;;;;5092662;28;20036;-68
2023/09/03 05:13:49;;;;;;;9.30;7.93;;;13.60;99.90;;;;;;5093227;28;20040;-68
2023/09/03 05:16:15;;;;;;;9.05;7.15;;;13.60;99.90;;;;;;5093174;28;20484;-68
2023/09/03 05:18:41;;;;;;;9.00;6.78;;;13.60;99.90;;;;;;5092824;28;20411;-68
2023/09/03 05:21:08;;;;;;;9.27;6.93;;;13.60;99.90;;;;;;5093076;28;20647;-68
2023/09/03 05:23:34;;;;;;;8.30;6.75;;;13.60;99.90;;;;;;5058193;28;20123;-68
2023/09/03 05:26:00;;;;;;;8.77;7.68;;;13.60;99.90;;;;;;5074842;28;20069;-68
2023/09/03 05:28:26;;;;;;;8.57;6.80;;;13.70;99.90;;;;;;5092685;28;20040;-68
2023/09/03 05:30:52;;;;;;;11.00;6.10;;;13.70;99.90;;;;;;5092830;28;20117;-68
2023/09/03 05:33:17;;;;;;;9.05;7.57;;;13.70;99.90;;;;;;5074930;28;20131;-68
2023/09/03 05:35:43;;;;;;;11.18;7.72;;;13.70;99.90;;;;;;5092705;28;20040;-68
2023/09/03 05:38:08;;;;;;;8.73;7.22;;;13.80;99.90;;;;;;5092956;28;20595;-68
2023/09/03 05:40:34;;;;;;;8.98;6.72;;;13.70;99.90;;;;;;5092721;28;20036;-68
2023/09/03 05:43:00;;;;;;;8.45;5.80;;;13.80;99.90;;;;;;5092769;28;20075;-68
2023/09/03 05:45:25;;;;;;;7.95;7.00;;;13.90;99.90;;;;;;5092685;28;20040;-68
2023/09/03 05:47:51;;;;;;;9.13;7.45;;;13.90;99.90;;;;;;5092309;28;20599;-68
2023/09/03 05:50:16;;;;;;;8.43;6.97;;;14.10;99.90;;;;;;5092386;28;20043;-68
2023/09/03 05:52:42;;;;;;;9.38;5.75;;;14.20;99.90;;;;;;5092332;28;20044;-68
2023/09/03 05:55:09;;;;;;;7.90;6.15;;;14.30;99.90;;;;;;5092595;28;20133;-68
2023/09/03 05:57:35;;;;;;;7.18;6.05;;;14.50;99.90;;;;;;5091269;28;20111;-68
2023/09/03 06:00:01;;;;;;;7.75;5.97;;;14.50;99.90;;;;;;5091558;28;20039;-68
2023/09/03 06:02:27;;;;;;;7.75;5.25;;;14.60;99.90;;;;;;5073802;28;20407;-68
2023/09/03 06:04:52;;;;;;;8.27;6.70;;;14.70;99.90;;;;;;5091810;28;20036;-68
2023/09/03 06:07:21;;;;;;;8.23;6.03;;;14.70;99.90;;;;;;5092353;28;20046;-68
2023/09/03 06:09:46;;;;;;;6.95;5.80;;;14.80;99.90;;;;;;5092291;28;20036;-68
2023/09/03 06:12:12;;;;;;;7.50;5.38;;;14.90;99.90;;;;;;5092243;28;20415;-68
2023/09/03 06:14:38;;;;;;;5.75;5.10;;;14.90;99.90;;;;;;5092173;28;20478;-68
2023/09/03 06:17:04;;;;;;;7.15;5.40;;;15.10;99.90;;;;;;5091879;28;20439;-68
2023/09/03 06:19:30;;;;;;;6.28;5.60;;;15.20;99.90;;;;;;5091803;28;20043;-68
2023/09/03 06:21:56;;;;;;;6.70;6.00;;;15.20;99.90;;;;;;5092336;28;20040;-68
2023/09/03 06:24:22;;;;;;;8.48;5.45;;;15.30;99.90;;;;;;5092029;28;20036;-68
2023/09/03 06:26:47;;;;;;;6.60;5.88;;;15.40;99.90;;;;;;5092140;28;20115;-69
2023/09/03 06:29:13;;;;;;;7.60;5.90;;;15.60;99.90;;;;;;5091629;28;20032;-68
2023/09/03 06:31:38;;;;;;;8.00;6.75;;;15.70;99.90;;;;;;5091941;28;20036;-68
2023/09/03 06:34:04;;;;;;;7.47;6.55;;;15.90;99.90;;;;;;5091872;28;20061;-68
2023/09/03 06:36:30;;;;;;;8.70;6.65;;;16.10;99.90;;;;;;5091896;28;20066;-68
2023/09/03 06:38:55;;;;;;;7.40;6.43;;;16.20;99.90;;;;;;5073682;28;20040;-68
2023/09/03 06:41:21;;;;;;;8.57;7.47;;;16.40;99.90;;;;;;5091875;28;20039;-68
2023/09/03 06:43:46;;;;;;;7.97;6.95;;;16.60;99.90;;;;;;5091753;28;20403;-68
2023/09/03 06:46:12;;;;;;;9.88;7.18;;;16.90;99.90;;;;;;5091773;28;20036;-68
2023/09/03 06:48:38;;;;;;;7.93;7.13;;;17.10;99.90;;;;;;5091832;28;20043;-68
2023/09/03 06:51:04;;;;;;;9.95;7.65;;;17.40;99.90;;;;;;5073725;28;20044;-68
2023/09/03 06:53:29;;;;;;;7.47;6.68;;;17.40;99.90;;;;;;5091814;28;20128;-68
2023/09/03 06:55:56;;;;;;;7.53;6.63;;;17.40;99.90;;;;;;5091678;28;20115;-68
2023/09/03 06:58:22;;;;;;;8.48;6.35;;;17.60;99.90;;;;;;5091630;28;20043;-68
2023/09/03 07:00:48;;;;;;;6.47;5.45;;;17.80;99.90;;;;;;5094609;28;20119;-68
2023/09/03 07:03:13;;;;;;;6.65;5.35;;;17.90;99.90;;;;;;5095735;28;20074;-68
2023/09/03 07:05:39;;;;;;;8.18;4.78;;;18.00;99.90;;;;;;5095657;28;20036;-68
2023/09/03 07:08:05;;;;;;;6.35;5.20;;;18.20;99.90;;;;;;5095554;28;20507;-68
2023/09/03 07:10:31;;;;;;;4.63;4.18;;;18.50;99.90;;;;;;5095699;28;20044;-69
2023/09/03 07:12:57;;;;;;;5.43;4.70;;;18.70;99.90;;;;;;5095562;28;20036;-67
2023/09/03 07:15:23;;;;;;;5.63;4.18;;;18.80;99.90;;;;;;5095320;28;20520;-67
2023/09/03 07:17:49;;;;;;;5.22;3.80;;;18.80;99.90;;;;;;5095407;28;20115;-66
2023/09/03 07:20:15;;;;;;;5.15;4.03;;;18.90;99.90;;;;;;5095277;28;20146;-66
2023/09/03 07:22:41;;;;;;;6.32;4.65;;;19.10;99.90;;;;;;5095046;28;20032;-67
2023/09/03 07:25:07;;;;;;;5.00;4.30;;;19.20;99.90;;;;;;5095519;28;20055;-67
2023/09/03 07:27:33;;;;;;;5.18;3.67;;;19.30;99.90;;;;;;5094835;28;20079;-67
2023/09/03 07:29:59;;;;;;;7.18;3.88;;;19.50;99.90;;;;;;5095085;28;20040;-68
2023/09/03 07:32:24;;;;;;;6.18;3.88;;;19.60;99.90;;;;;;5095097;28;20040;-66
2023/09/03 07:34:50;;;;;;;3.95;3.15;;;19.60;99.90;;;;;;5094654;28;20123;-69
2023/09/03 07:37:17;;;;;;;6.13;3.72;;;19.60;99.90;;;;;;5095145;28;20036;-67
2023/09/03 07:39:43;;;;;;;4.93;3.47;;;19.60;99.90;;;;;;5094933;28;20036;-67
2023/09/03 07:42:09;;;;;;;4.85;3.42;;;19.60;99.90;;;;;;5076879;28;20043;-67
2023/09/03 07:44:34;;;;;;;5.22;3.80;;;19.50;99.90;;;;;;5095032;28;20040;-67
2023/09/03 07:47:01;;;;;;;3.90;3.28;;;19.40;99.90;;;;;;5095059;28;20113;-67
2023/09/03 07:49:27;;;;;;;6.75;3.95;;;19.40;99.90;;;;;;5083332;28;20503;-67
2023/09/03 07:51:53;;;;;;;4.75;3.70;;;19.40;99.90;;;;;;5074294;28;20033;-67
2023/09/03 07:54:18;;;;;;;10.05;4.40;;;19.50;99.90;;;;;;5074524;28;20071;-67
2023/09/03 07:56:44;;;;;;;6.90;4.43;;;19.50;99.90;;;;;;5074393;28;20032;-67
2023/09/03 07:59:10;;;;;;;3.90;3.50;;;19.60;99.90;;;;;;5073938;28;20051;-68
2023/09/03 08:01:35;;;;;;;5.97;3.40;;;19.60;99.90;;;;;;5074697;28;20116;-69
2023/09/03 08:04:01;;;;;;;4.15;3.40;;;19.70;99.90;;;;;;5072966;28;20476;-69
2023/09/03 08:06:27;;;;;;;4.15;3.28;;;19.80;99.90;;;;;;5074428;28;20048;-69
2023/09/03 08:08:54;;;;;;;6.57;3.30;;;19.80;99.90;;;;;;5056055;28;20047;-69
2023/09/03 08:11:23;;;;;;;5.03;3.40;;;19.80;99.90;;;;;;5074178;28;20072;-67
2023/09/03 08:13:51;;;;;;;4.75;3.30;;;19.80;99.90;;;;;;5055961;28;20500;-67
2023/09/03 08:16:17;;;;;;;3.92;3.00;;;19.70;99.90;;;;;;5056160;28;20115;-67
2023/09/03 08:18:43;;;;;;;4.88;2.70;;;19.80;99.90;;;;;;5074170;28;20107;-67
2023/09/03 08:21:08;;;;;;;5.07;2.00;;;19.90;99.90;;;;;;5074285;28;20496;-67
2023/09/03 08:23:34;;;;;;;5.05;2.53;;;19.90;99.90;;;;;;5073890;28;20036;-67
2023/09/03 08:26:00;;;;;;;3.53;1.92;;;19.90;99.90;;;;;;5073316;28;20419;-68
2023/09/03 08:28:25;;;;;;;3.58;2.65;;;20.00;99.90;;;;;;5073308;28;20408;-68
2023/09/03 08:30:51;;;;;;;5.43;2.63;;;20.20;99.90;;;;;;5074003;28;20041;-68
2023/09/03 08:33:16;;;;;;;5.07;2.72;;;20.40;99.90;;;;;;5073773;28;20107;-67
2023/09/03 08:35:43;;;;;;;3.97;2.53;;;20.60;99.90;;;;;;5073792;28;20037;-70
2023/09/03 08:38:09;;;;;;;3.65;2.72;;;20.70;99.90;;;;;;5055961;28;20068;-70
2023/09/03 08:40:36;;;;;;;4.63;2.85;;;20.80;99.90;;;;;;5073498;28;20068;-70
2023/09/03 08:43:07;;;;;;;5.38;3.13;;;20.80;99.90;;;;;;5055666;28;20040;-69
2023/09/03 08:45:37;;;;;;;5.40;3.00;;;20.80;99.90;;;;;;5055717;28;20062;-70
2023/09/03 08:48:02;;;;;;;3.83;2.80;;;20.80;99.90;;;;;;5073531;28;20033;-67
2023/09/03 08:50:29;;;;;;;4.95;3.13;;;20.70;99.90;;;;;;5073554;28;20044;-67
2023/09/03 08:52:56;;;;;;;3.10;2.00;;;20.90;99.90;;;;;;5073541;28;20047;-67
2023/09/03 08:55:22;;;;;;;5.03;2.30;;;21.10;99.90;;;;;;5073315;28;20045;-69
2023/09/03 08:57:47;;;;;;;2.90;2.20;;;21.30;99.90;;;;;;5055451;28;20041;-70
2023/09/03 09:00:14;;;;;;;5.35;2.35;;;21.30;99.90;;;;;;5073143;28;20087;-67
2023/09/03 09:02:42;;;;;;;3.95;1.75;;;21.30;99.90;;;;;;5073066;28;20504;-68
2023/09/03 09:05:09;;;;;;;5.45;2.20;;;21.40;99.90;;;;;;5073241;28;20044;-68
2023/09/03 09:07:35;;;;;;;4.18;2.28;;;21.50;99.90;;;;;;5073002;28;20106;-67
2023/09/03 09:10:08;;;;;;;3.60;2.05;;;21.50;99.90;;;;;;5072960;28;20048;-68
2023/09/03 09:12:46;;;;;;;3.65;1.70;;;21.50;99.90;;;;;;5055155;28;20044;-68
2023/09/03 09:15:11;;;;;;;5.63;2.55;;;21.30;99.90;;;;;;5073088;28;20441;-68
2023/09/03 09:17:38;;;;;;;2.50;1.83;;;21.40;99.90;;;;;;5072961;28;20033;-67
2023/09/03 09:20:09;;;;;;;5.22;2.38;;;21.40;99.90;;;;;;5055010;28;20047;-68
2023/09/03 09:22:46;;;;;;;2.80;2.20;;;21.40;99.90;;;;;;5072288;28;20412;-67
2023/09/03 09:25:23;;;;;;;3.78;1.70;;;21.10;99.90;;;;;;5072559;28;20040;-67
2023/09/03 09:27:49;;;;;;;2.63;1.85;;;21.30;99.90;;;;;;5072866;28;20419;-67
2023/09/03 09:30:20;;;;;;;3.38;1.70;;;21.30;99.90;;;;;;5054701;28;20628;-70
2023/09/03 09:32:46;;;;;;;2.67;1.75;;;21.40;99.90;;;;;;5072791;28;20072;-70
2023/09/03 09:35:23;;;;;;;2.75;1.67;;;21.40;99.90;;;;;;5072501;28;20496;-69
2023/09/03 09:37:48;;;;;;;4.05;1.50;;;21.40;99.90;;;;;;5054897;28;20105;-68
2023/09/03 09:40:27;;;;;;;6.30;2.40;;;21.40;99.90;;;;;;5072294;28;20123;-68
2023/09/03 09:42:55;;;;;;;2.50;1.70;;;21.30;99.90;;;;;;5072486;28;20163;-67
2023/09/03 09:45:21;;;;;;;3.42;1.38;;;21.20;99.90;;;;;;5072425;28;20040;-68
2023/09/03 09:48:01;;;;;;;4.25;1.60;;;21.30;99.90;;;;;;5072179;28;20514;-68
2023/09/03 09:50:33;;;;;;;4.15;2.00;;;21.40;99.90;;;;;;5072405;28;20044;-68
2023/09/03 09:52:59;;;;;;;2.67;1.67;;;21.30;99.90;;;;;;5072238;28;20040;-68
2023/09/03 09:55:25;;;;;;;1.67;1.50;;;21.20;99.90;;;;;;5072226;28;20041;-68
2023/09/03 09:57:51;;;;;;;2.83;1.73;;;21.10;99.90;;;;;;5070874;28;20047;-68
2023/09/03 10:00:34;;;;;;;3.33;1.52;;;21.20;99.90;;;;;;5072041;28;20098;-68
2023/09/03 10:03:00;;;;;;;2.97;1.60;;;21.10;99.90;;;;;;5071962;28;20055;-68
2023/09/03 10:05:26;;;;;;;2.35;1.77;;;21.00;99.90;;;;;;5054313;28;20040;-68
2023/09/03 10:07:53;;;;;;;7.47;1.98;;;21.00;99.90;;;;;;5072078;28;20056;-68
2023/09/03 10:10:20;;;;;;;4.97;1.48;;;21.50;99.90;;;;;;5071664;28;20068;-68
2023/09/03 10:12:46;;;;;;;2.38;1.30;;;21.70;99.90;;;;;;5080445;28;20129;-67
2023/09/03 10:15:15;;;;;;;2.33;1.05;;;21.80;99.90;;;;;;5091730;28;20032;-68
2023/09/03 10:17:41;;;;;;;2.38;1.52;;;21.70;99.90;;;;;;5084364;28;20495;-68
2023/09/03 10:20:12;;;;;;;3.10;1.70;;;21.60;99.90;;;;;;5080102;28;20036;-68
2023/09/03 10:22:40;;;;;;;3.78;1.65;;;21.60;99.90;;;;;;5054263;28;20127;-68
2023/09/03 10:25:10;;;;;;;4.05;1.65;;;21.50;99.90;;;;;;5071659;28;20036;-68
2023/09/03 10:27:41;;;;;;;5.80;1.80;;;21.60;99.90;;;;;;5071708;28;20511;-68
2023/09/03 10:30:09;;;;;;;3.67;1.48;;;21.60;99.90;;;;;;5071660;28;20447;-69
2023/09/03 10:32:36;;;;;;;2.03;1.00;;;21.60;99.90;;;;;;5071651;28;20523;-69
2023/09/03 10:35:12;;;;;;;1.85;1.38;;;21.60;99.90;;;;;;5070571;28;20106;-69
2023/09/03 10:37:41;;;;;;;2.13;1.30;;;21.60;99.90;;;;;;5071520;28;20499;-69
2023/09/03 10:40:24;;;;;;;3.42;1.42;;;21.70;99.90;;;;;;5071659;28;20115;-69
2023/09/03 10:43:13;;;;;;;3.58;1.88;;;21.80;99.90;;;;;;5053897;28;20036;-69
2023/09/03 10:45:38;;;;;;;3.33;1.17;;;21.80;99.90;;;;;;5071520;28;20040;-69
2023/09/03 10:48:05;;;;;;;3.03;1.55;;;21.80;99.90;;;;;;5091041;28;20127;-69
2023/09/03 10:50:50;;;;;;;2.13;1.25;;;21.70;99.90;;;;;;5091270;28;20111;-69
2023/09/03 10:53:43;;;;;;;2.88;1.20;;;21.70;99.90;;;;;;5091600;28;20078;-68
2023/09/03 10:56:17;;;;;;;2.40;1.10;;;21.70;99.90;;;;;;5091491;28;20131;-68
2023/09/03 10:58:55;;;;;;;2.22;1.20;;;21.80;99.90;;;;;;5091621;28;20362;-68
2023/09/03 11:01:31;;;;;;;4.72;1.70;;;21.70;99.90;;;;;;5056872;28;20066;-68
2023/09/03 11:03:59;;;;;;;2.47;1.10;;;21.70;99.90;;;;;;5092818;22;20053;-73
2023/09/03 11:06:26;;;;;;;2.50;1.00;;;21.60;99.90;;;;;;5070271;28;20110;-72
2023/09/03 11:09:01;;;;;;;1.70;0.70;;;21.50;99.90;;;;;;5068282;28;20051;-73
2023/09/03 11:11:33;;;;;;;1.67;0.90;;;21.50;99.90;;;;;;5068183;28;20617;-73
2023/09/03 11:14:02;;;;;;;3.58;1.10;;;21.50;99.90;;;;;;5068993;28;20494;-74
2023/09/03 11:16:32;;;;;;;3.15;1.10;;;21.60;99.90;;;;;;5070160;28;20492;-73
2023/09/03 11:18:59;;;;;;;3.38;1.05;;;21.50;99.90;;;;;;5069301;28;20099;-73
2023/09/03 11:21:26;;;;;;;3.10;1.23;;;21.50;99.90;;;;;;5070781;28;20533;-73
2023/09/03 11:24:08;;;;;;;3.55;1.20;;;21.50;99.90;;;;;;5071004;28;20115;-73
2023/09/03 11:26:35;;;;;;;3.05;0.80;;;21.50;99.90;;;;;;5070241;28;20049;-73
2023/09/03 11:29:02;;;;;;;3.75;1.35;;;21.60;99.90;;;;;;5069763;28;20082;-73
2023/09/03 11:31:28;;;;;;;2.92;1.50;;;21.70;99.90;;;;;;5070616;28;20041;-73
2023/09/03 11:33:55;;;;;;;2.88;1.08;;;21.60;99.90;;;;;;5070148;28;20805;-73
2023/09/03 11:36:24;;;;;;;2.13;1.20;;;21.60;99.90;;;;;;5069560;28;20045;-73
2023/09/03 11:38:55;;;;;;;2.45;1.00;;;21.60;99.90;;;;;;5069626;28;20080;-72
2023/09/03 11:41:21;;;;;;;2.22;0.90;;;21.60;99.90;;;;;;5071232;28;20043;-72
2023/09/03 11:43:46;;;;;;;2.40;1.27;;;21.50;99.90;;;;;;5069684;28;20040;-72
2023/09/03 11:46:14;;;;;;;1.77;0.82;;;21.50;99.90;;;;;;5072835;28;20404;-73
2023/09/03 11:48:40;;;;;;;1.13;0.73;;;21.40;99.90;;;;;;5074679;28;20041;-73
2023/09/03 11:51:06;;;;;;;3.95;1.25;;;21.40;99.90;;;;;;5074612;28;20538;-72
2023/09/03 11:53:42;;;;;;;2.15;0.90;;;21.50;99.90;;;;;;5073528;28;20097;-73
2023/09/03 11:56:11;;;;;;;5.75;1.73;;;21.60;99.90;;;;;;5074648;28;20055;-73
2023/09/03 11:58:39;;;;;;;2.60;1.30;;;21.60;99.90;;;;;;5074209;28;20059;-72
2023/09/03 12:01:06;;;;;;;3.25;1.10;;;21.40;99.90;;;;;;5074302;28;20048;-73
2023/09/03 12:03:32;;;;;;;3.40;1.00;;;21.30;99.90;;;;;;5073896;28;20088;-74
2023/09/03 12:05:57;;;;;;;1.58;0.98;;;21.40;99.90;;;;;;5074494;28;20079;-74
2023/09/03 12:08:23;;;;;;;2.10;0.88;;;21.50;99.90;;;;;;5073011;28;20643;-74
2023/09/03 12:10:49;;;;;;;1.02;0.70;;;21.60;99.90;;;;;;5072933;28;20044;-74
2023/09/03 12:13:35;;;;;;;1.83;0.80;;;21.50;99.90;;;;;;5074388;28;20518;-73
2023/09/03 12:16:04;;;;;;;3.50;1.05;;;21.50;99.90;;;;;;5074322;28;20040;-74
2023/09/03 12:18:30;;;;;;;2.97;0.95;;;21.60;99.90;;;;;;5073139;28;20045;-73
2023/09/03 12:20:56;;;;;;;1.75;0.90;;;21.50;99.90;;;;;;5056363;28;20033;-73
2023/09/03 12:23:21;;;;;;;3.25;1.42;;;21.60;99.90;;;;;;5074020;28;20037;-72
2023/09/03 12:25:47;;;;;;;3.75;1.38;;;21.60;99.90;;;;;;5073500;28;20044;-72
2023/09/03 12:28:12;;;;;;;2.40;1.17;;;21.60;99.90;;;;;;5072219;28;20036;-72
2023/09/03 12:31:13;;;;;;;2.15;1.13;;;21.70;99.90;;;;;;5073297;28;20115;-73
2023/09/03 12:33:47;;;;;;;2.40;1.30;;;21.80;99.90;;;;;;5014469;28;20513;-73
2023/09/03 12:36:15;;;;;;;1.58;1.20;;;21.80;99.90;;;;;;5066927;28;20056;-72
2023/09/03 12:39:07;;;;;;;3.00;1.00;;;21.90;99.90;;;;;;5072525;28;20129;-72
2023/09/03 12:41:37;;;;;;;1.80;1.10;;;21.90;99.90;;;;;;5071494;28;20051;-73
2023/09/03 12:44:08;;;;;;;2.88;0.90;;;22.10;99.90;;;;;;5073748;28;20039;-73
2023/09/03 12:46:34;;;;;;;2.25;1.20;;;22.20;99.90;;;;;;5072334;28;20040;-73